sensor_id;sensor_type;location;lat;lon;timestamp;P1;durP1;ratioP1;P2;durP2;ratioP2
65668;SDS011;52376;47.448;19.354;2022-10-22T00:00:47;0.05;;;0.05;;
65668;SDS011;52376;47.448;19.354;2022-10-22T00:03:15;1.70;;;1.60;;
65668;SDS011;52376;47.448;19.354;2022-10-22T00:05:43;0.45;;;0.37;;
65668;SDS011;52376;47.448;19.354;2022-10-22T00:08:11;0.25;;;0.22;;
65668;SDS011;52376;47.448;19.354;2022-10-22T00:10:39;0.30;;;0.30;;
65668;SDS011;52376;47.448;19.354;2022-10-22T00:13:09;0.65;;;0.43;;
65668;SDS011;52376;47.448;19.354;2022-10-22T00:15:37;0.30;;;0.30;;
65668;SDS011;52376;47.448;19.354;2022-10-22T00:18:05;0.65;;;0.40;;
65668;SDS011;52376;47.448;19.354;2022-10-22T00:20:33;0.35;;;0.35;;
65668;SDS011;52376;47.448;19.354;2022-10-22T00:23:00;1.17;;;0.85;;
65668;SDS011;52376;47.448;19.354;2022-10-22T00:25:29;0.20;;;0.20;;
65668;SDS011;52376;47.448;19.354;2022-10-22T00:27:57;0.88;;;0.55;;
65668;SDS011;52376;47.448;19.354;2022-10-22T00:30:24;0.55;;;0.32;;
65668;SDS011;52376;47.448;19.354;2022-10-22T00:32:53;1.27;;;0.77;;
65668;SDS011;52376;47.448;19.354;2022-10-22T00:35:21;3.90;;;1.80;;
65668;SDS011;52376;47.448;19.354;2022-10-22T00:37:49;0.10;;;0.10;;
65668;SDS011;52376;47.448;19.354;2022-10-22T00:40:17;0.20;;;0.20;;
65668;SDS011;52376;47.448;19.354;2022-10-22T00:42:44;0.10;;;0.10;;
65668;SDS011;52376;47.448;19.354;2022-10-22T00:45:19;0.43;;;0.43;;
65668;SDS011;52376;47.448;19.354;2022-10-22T00:47:55;0.28;;;0.10;;
65668;SDS011;52376;47.448;19.354;2022-10-22T00:53:01;0.70;;;0.52;;
65668;SDS011;52376;47.448;19.354;2022-10-22T00:55:31;0.55;;;0.55;;
65668;SDS011;52376;47.448;19.354;2022-10-22T00:58:12;0.40;;;0.40;;
65668;SDS011;52376;47.448;19.354;2022-10-22T01:00:40;0.80;;;0.80;;
65668;SDS011;52376;47.448;19.354;2022-10-22T01:03:08;0.10;;;0.10;;
65668;SDS011;52376;47.448;19.354;2022-10-22T01:05:38;0.10;;;0.10;;
65668;SDS011;52376;47.448;19.354;2022-10-22T01:08:12;0.20;;;0.20;;
65668;SDS011;52376;47.448;19.354;2022-10-22T01:16:58;0.65;;;0.65;;
65668;SDS011;52376;47.448;19.354;2022-10-22T01:22:23;0.90;;;0.52;;
65668;SDS011;52376;47.448;19.354;2022-10-22T01:27:30;0.60;;;0.60;;
65668;SDS011;52376;47.448;19.354;2022-10-22T01:30:05;0.08;;;0.08;;
65668;SDS011;52376;47.448;19.354;2022-10-22T01:32:36;0.28;;;0.25;;
65668;SDS011;52376;47.448;19.354;2022-10-22T01:35:08;1.45;;;0.40;;
65668;SDS011;52376;47.448;19.354;2022-10-22T01:37:39;0.45;;;0.35;;
65668;SDS011;52376;47.448;19.354;2022-10-22T01:40:15;0.00;;;0.00;;
65668;SDS011;52376;47.448;19.354;2022-10-22T01:42:53;0.62;;;0.62;;
65668;SDS011;52376;47.448;19.354;2022-10-22T01:45:26;0.10;;;0.10;;
65668;SDS011;52376;47.448;19.354;2022-10-22T02:01:53;0.00;;;0.00;;
65668;SDS011;52376;47.448;19.354;2022-10-22T02:07:07;0.00;;;0.00;;
65668;SDS011;52376;47.448;19.354;2022-10-22T02:09:39;1.05;;;0.55;;
65668;SDS011;52376;47.448;19.354;2022-10-22T02:12:07;1.02;;;0.62;;
65668;SDS011;52376;47.448;19.354;2022-10-22T02:14:36;5.20;;;0.70;;
65668;SDS011;52376;47.448;19.354;2022-10-22T02:17:07;0.00;;;0.00;;
65668;SDS011;52376;47.448;19.354;2022-10-22T02:22:08;0.88;;;0.80;;
65668;SDS011;52376;47.448;19.354;2022-10-22T02:24:36;0.30;;;0.30;;
65668;SDS011;52376;47.448;19.354;2022-10-22T02:30:07;0.68;;;0.52;;
65668;SDS011;52376;47.448;19.354;2022-10-22T02:32:50;0.13;;;0.13;;
65668;SDS011;52376;47.448;19.354;2022-10-22T02:35:23;2.28;;;0.82;;
65668;SDS011;52376;47.448;19.354;2022-10-22T02:37:52;1.17;;;0.20;;
65668;SDS011;52376;47.448;19.354;2022-10-22T02:40:22;4.40;;;0.95;;
65668;SDS011;52376;47.448;19.354;2022-10-22T02:42:50;0.10;;;0.10;;
65668;SDS011;52376;47.448;19.354;2022-10-22T02:45:18;0.10;;;0.10;;
65668;SDS011;52376;47.448;19.354;2022-10-22T02:47:47;0.40;;;0.20;;
65668;SDS011;52376;47.448;19.354;2022-10-22T02:50:14;0.98;;;0.75;;
65668;SDS011;52376;47.448;19.354;2022-10-22T02:52:42;0.13;;;0.13;;
65668;SDS011;52376;47.448;19.354;2022-10-22T02:55:10;0.62;;;0.40;;
65668;SDS011;52376;47.448;19.354;2022-10-22T02:57:38;0.73;;;0.73;;
65668;SDS011;52376;47.448;19.354;2022-10-22T03:00:07;0.28;;;0.28;;
65668;SDS011;52376;47.448;19.354;2022-10-22T03:02:35;0.55;;;0.55;;
65668;SDS011;52376;47.448;19.354;2022-10-22T03:05:03;0.05;;;0.05;;
65668;SDS011;52376;47.448;19.354;2022-10-22T03:07:32;1.50;;;1.40;;
65668;SDS011;52376;47.448;19.354;2022-10-22T03:10:00;0.20;;;0.20;;
65668;SDS011;52376;47.448;19.354;2022-10-22T03:12:29;0.70;;;0.32;;
65668;SDS011;52376;47.448;19.354;2022-10-22T03:14:56;1.08;;;0.47;;
65668;SDS011;52376;47.448;19.354;2022-10-22T03:17:25;0.40;;;0.40;;
65668;SDS011;52376;47.448;19.354;2022-10-22T03:19:52;1.65;;;0.80;;
65668;SDS011;52376;47.448;19.354;2022-10-22T03:22:21;3.50;;;0.62;;
65668;SDS011;52376;47.448;19.354;2022-10-22T03:24:51;0.10;;;0.10;;
65668;SDS011;52376;47.448;19.354;2022-10-22T03:27:21;0.10;;;0.10;;
65668;SDS011;52376;47.448;19.354;2022-10-22T03:29:50;1.40;;;0.35;;
65668;SDS011;52376;47.448;19.354;2022-10-22T03:32:19;2.90;;;1.85;;
65668;SDS011;52376;47.448;19.354;2022-10-22T03:34:46;0.30;;;0.30;;
65668;SDS011;52376;47.448;19.354;2022-10-22T03:37:14;0.08;;;0.08;;
65668;SDS011;52376;47.448;19.354;2022-10-22T03:39:42;0.37;;;0.30;;
65668;SDS011;52376;47.448;19.354;2022-10-22T03:42:10;0.93;;;0.80;;
65668;SDS011;52376;47.448;19.354;2022-10-22T03:44:38;1.10;;;0.40;;
65668;SDS011;52376;47.448;19.354;2022-10-22T03:47:07;0.00;;;0.00;;
65668;SDS011;52376;47.448;19.354;2022-10-22T03:49:34;0.17;;;0.17;;
65668;SDS011;52376;47.448;19.354;2022-10-22T03:52:05;0.10;;;0.10;;
65668;SDS011;52376;47.448;19.354;2022-10-22T03:54:34;1.42;;;1.23;;
65668;SDS011;52376;47.448;19.354;2022-10-22T03:57:03;0.35;;;0.30;;
65668;SDS011;52376;47.448;19.354;2022-10-22T03:59:35;0.30;;;0.25;;
65668;SDS011;52376;47.448;19.354;2022-10-22T04:02:07;0.30;;;0.30;;
65668;SDS011;52376;47.448;19.354;2022-10-22T04:04:35;0.30;;;0.30;;
65668;SDS011;52376;47.448;19.354;2022-10-22T04:07:04;1.42;;;0.75;;
65668;SDS011;52376;47.448;19.354;2022-10-22T04:09:32;0.00;;;0.00;;
65668;SDS011;52376;47.448;19.354;2022-10-22T04:12:01;0.17;;;0.17;;
65668;SDS011;52376;47.448;19.354;2022-10-22T04:14:29;0.00;;;0.00;;
65668;SDS011;52376;47.448;19.354;2022-10-22T04:16:56;1.48;;;0.60;;
65668;SDS011;52376;47.448;19.354;2022-10-22T04:19:25;0.32;;;0.08;;
65668;SDS011;52376;47.448;19.354;2022-10-22T04:21:52;0.35;;;0.35;;
65668;SDS011;52376;47.448;19.354;2022-10-22T04:24:20;0.40;;;0.40;;
65668;SDS011;52376;47.448;19.354;2022-10-22T04:26:48;0.65;;;0.62;;
65668;SDS011;52376;47.448;19.354;2022-10-22T04:29:16;0.25;;;0.22;;
65668;SDS011;52376;47.448;19.354;2022-10-22T04:31:45;0.45;;;0.45;;
65668;SDS011;52376;47.448;19.354;2022-10-22T04:34:14;0.43;;;0.43;;
65668;SDS011;52376;47.448;19.354;2022-10-22T04:36:43;0.45;;;0.45;;
65668;SDS011;52376;47.448;19.354;2022-10-22T04:39:11;1.10;;;0.95;;
65668;SDS011;52376;47.448;19.354;2022-10-22T04:41:39;0.57;;;0.57;;
65668;SDS011;52376;47.448;19.354;2022-10-22T04:44:06;0.08;;;0.08;;
65668;SDS011;52376;47.448;19.354;2022-10-22T04:46:42;0.00;;;0.00;;
65668;SDS011;52376;47.448;19.354;2022-10-22T04:49:10;0.10;;;0.10;;
65668;SDS011;52376;47.448;19.354;2022-10-22T04:51:37;0.40;;;0.40;;
65668;SDS011;52376;47.448;19.354;2022-10-22T04:54:05;0.20;;;0.20;;
65668;SDS011;52376;47.448;19.354;2022-10-22T04:56:33;1.62;;;1.52;;
65668;SDS011;52376;47.448;19.354;2022-10-22T04:59:02;0.73;;;0.68;;
65668;SDS011;52376;47.448;19.354;2022-10-22T05:01:32;0.00;;;0.00;;
65668;SDS011;52376;47.448;19.354;2022-10-22T05:04:10;0.10;;;0.10;;
65668;SDS011;52376;47.448;19.354;2022-10-22T05:06:39;0.75;;;0.30;;
65668;SDS011;52376;47.448;19.354;2022-10-22T05:09:09;1.30;;;0.70;;
65668;SDS011;52376;47.448;19.354;2022-10-22T05:11:39;0.50;;;0.30;;
65668;SDS011;52376;47.448;19.354;2022-10-22T05:14:08;0.45;;;0.45;;
65668;SDS011;52376;47.448;19.354;2022-10-22T05:16:36;4.32;;;1.87;;
65668;SDS011;52376;47.448;19.354;2022-10-22T05:19:05;0.75;;;0.60;;
65668;SDS011;52376;47.448;19.354;2022-10-22T05:21:33;0.10;;;0.10;;
65668;SDS011;52376;47.448;19.354;2022-10-22T05:24:01;0.62;;;0.60;;
65668;SDS011;52376;47.448;19.354;2022-10-22T05:26:30;1.12;;;1.02;;
65668;SDS011;52376;47.448;19.354;2022-10-22T05:28:57;2.87;;;0.50;;
65668;SDS011;52376;47.448;19.354;2022-10-22T05:31:25;0.25;;;0.25;;
65668;SDS011;52376;47.448;19.354;2022-10-22T05:33:54;1.05;;;0.60;;
65668;SDS011;52376;47.448;19.354;2022-10-22T05:36:22;0.52;;;0.50;;
65668;SDS011;52376;47.448;19.354;2022-10-22T05:38:49;0.65;;;0.60;;
65668;SDS011;52376;47.448;19.354;2022-10-22T05:41:19;0.28;;;0.25;;
65668;SDS011;52376;47.448;19.354;2022-10-22T05:43:48;2.03;;;1.00;;
65668;SDS011;52376;47.448;19.354;2022-10-22T05:46:17;0.60;;;0.55;;
65668;SDS011;52376;47.448;19.354;2022-10-22T05:48:56;0.82;;;0.82;;
65668;SDS011;52376;47.448;19.354;2022-10-22T05:51:29;1.65;;;1.55;;
65668;SDS011;52376;47.448;19.354;2022-10-22T05:54:01;0.52;;;0.52;;
65668;SDS011;52376;47.448;19.354;2022-10-22T05:56:30;0.77;;;0.70;;
65668;SDS011;52376;47.448;19.354;2022-10-22T05:58:59;2.55;;;0.80;;
65668;SDS011;52376;47.448;19.354;2022-10-22T06:01:32;0.68;;;0.68;;
65668;SDS011;52376;47.448;19.354;2022-10-22T06:04:05;0.15;;;0.08;;
65668;SDS011;52376;47.448;19.354;2022-10-22T06:06:44;0.35;;;0.35;;
65668;SDS011;52376;47.448;19.354;2022-10-22T06:09:19;0.15;;;0.15;;
65668;SDS011;52376;47.448;19.354;2022-10-22T06:11:48;0.47;;;0.32;;
65668;SDS011;52376;47.448;19.354;2022-10-22T06:14:16;1.37;;;0.73;;
65668;SDS011;52376;47.448;19.354;2022-10-22T06:16:45;0.10;;;0.10;;
65668;SDS011;52376;47.448;19.354;2022-10-22T06:19:14;0.10;;;0.10;;
65668;SDS011;52376;47.448;19.354;2022-10-22T06:21:46;0.03;;;0.03;;
65668;SDS011;52376;47.448;19.354;2022-10-22T06:24:14;0.65;;;0.65;;
65668;SDS011;52376;47.448;19.354;2022-10-22T06:26:42;0.75;;;0.30;;
65668;SDS011;52376;47.448;19.354;2022-10-22T06:29:10;0.10;;;0.10;;
65668;SDS011;52376;47.448;19.354;2022-10-22T06:31:38;0.55;;;0.55;;
65668;SDS011;52376;47.448;19.354;2022-10-22T06:34:07;0.20;;;0.10;;
65668;SDS011;52376;47.448;19.354;2022-10-22T06:36:37;0.20;;;0.20;;
65668;SDS011;52376;47.448;19.354;2022-10-22T06:39:05;0.10;;;0.10;;
65668;SDS011;52376;47.448;19.354;2022-10-22T06:41:33;0.25;;;0.20;;
65668;SDS011;52376;47.448;19.354;2022-10-22T06:44:01;1.75;;;1.05;;
65668;SDS011;52376;47.448;19.354;2022-10-22T06:46:29;0.75;;;0.57;;
65668;SDS011;52376;47.448;19.354;2022-10-22T06:49:00;0.57;;;0.57;;
65668;SDS011;52376;47.448;19.354;2022-10-22T06:51:28;1.25;;;0.57;;
65668;SDS011;52376;47.448;19.354;2022-10-22T06:53:56;0.00;;;0.00;;
65668;SDS011;52376;47.448;19.354;2022-10-22T06:56:25;0.62;;;0.60;;
65668;SDS011;52376;47.448;19.354;2022-10-22T06:58:54;0.40;;;0.20;;
65668;SDS011;52376;47.448;19.354;2022-10-22T07:01:24;1.17;;;0.70;;
65668;SDS011;52376;47.448;19.354;2022-10-22T07:03:57;0.50;;;0.40;;
65668;SDS011;52376;47.448;19.354;2022-10-22T07:06:25;0.30;;;0.30;;
65668;SDS011;52376;47.448;19.354;2022-10-22T07:08:55;0.93;;;0.90;;
65668;SDS011;52376;47.448;19.354;2022-10-22T07:11:44;0.20;;;0.10;;
65668;SDS011;52376;47.448;19.354;2022-10-22T07:14:12;0.73;;;0.62;;
65668;SDS011;52376;47.448;19.354;2022-10-22T07:16:40;1.55;;;0.55;;
65668;SDS011;52376;47.448;19.354;2022-10-22T07:19:08;1.08;;;0.98;;
65668;SDS011;52376;47.448;19.354;2022-10-22T07:21:36;1.00;;;0.77;;
65668;SDS011;52376;47.448;19.354;2022-10-22T07:24:04;0.55;;;0.43;;
65668;SDS011;52376;47.448;19.354;2022-10-22T07:26:32;0.20;;;0.20;;
65668;SDS011;52376;47.448;19.354;2022-10-22T07:29:04;0.35;;;0.32;;
65668;SDS011;52376;47.448;19.354;2022-10-22T07:31:32;2.15;;;1.23;;
65668;SDS011;52376;47.448;19.354;2022-10-22T07:34:17;0.55;;;0.55;;
65668;SDS011;52376;47.448;19.354;2022-10-22T07:36:46;1.77;;;0.50;;
65668;SDS011;52376;47.448;19.354;2022-10-22T07:39:16;0.43;;;0.43;;
65668;SDS011;52376;47.448;19.354;2022-10-22T07:41:44;1.98;;;1.10;;
65668;SDS011;52376;47.448;19.354;2022-10-22T07:44:14;0.50;;;0.45;;
65668;SDS011;52376;47.448;19.354;2022-10-22T07:46:42;2.75;;;1.08;;
65668;SDS011;52376;47.448;19.354;2022-10-22T07:49:15;0.32;;;0.30;;
65668;SDS011;52376;47.448;19.354;2022-10-22T07:51:43;0.70;;;0.70;;
65668;SDS011;52376;47.448;19.354;2022-10-22T07:54:10;1.35;;;0.90;;
65668;SDS011;52376;47.448;19.354;2022-10-22T07:56:38;0.52;;;0.52;;
65668;SDS011;52376;47.448;19.354;2022-10-22T07:59:06;3.05;;;1.45;;
65668;SDS011;52376;47.448;19.354;2022-10-22T08:01:33;0.62;;;0.43;;
65668;SDS011;52376;47.448;19.354;2022-10-22T08:04:01;1.15;;;0.82;;
65668;SDS011;52376;47.448;19.354;2022-10-22T08:06:29;1.15;;;0.73;;
65668;SDS011;52376;47.448;19.354;2022-10-22T08:08:58;2.28;;;1.37;;
65668;SDS011;52376;47.448;19.354;2022-10-22T08:11:27;0.43;;;0.43;;
65668;SDS011;52376;47.448;19.354;2022-10-22T08:13:57;1.05;;;0.95;;
65668;SDS011;52376;47.448;19.354;2022-10-22T08:16:24;1.02;;;0.82;;
65668;SDS011;52376;47.448;19.354;2022-10-22T08:18:52;2.97;;;0.40;;
65668;SDS011;52376;47.448;19.354;2022-10-22T08:21:20;1.55;;;1.30;;
65668;SDS011;52376;47.448;19.354;2022-10-22T08:23:47;0.88;;;0.75;;
65668;SDS011;52376;47.448;19.354;2022-10-22T08:26:18;1.08;;;0.60;;
65668;SDS011;52376;47.448;19.354;2022-10-22T08:28:45;0.62;;;0.40;;
65668;SDS011;52376;47.448;19.354;2022-10-22T08:31:16;0.10;;;0.10;;
65668;SDS011;52376;47.448;19.354;2022-10-22T08:33:44;0.82;;;0.70;;
65668;SDS011;52376;47.448;19.354;2022-10-22T08:36:12;1.45;;;1.20;;
65668;SDS011;52376;47.448;19.354;2022-10-22T08:38:40;0.45;;;0.40;;
65668;SDS011;52376;47.448;19.354;2022-10-22T08:41:18;2.12;;;1.98;;
65668;SDS011;52376;47.448;19.354;2022-10-22T08:43:57;0.45;;;0.45;;
65668;SDS011;52376;47.448;19.354;2022-10-22T08:46:38;1.20;;;0.85;;
65668;SDS011;52376;47.448;19.354;2022-10-22T08:49:23;3.22;;;1.58;;
65668;SDS011;52376;47.448;19.354;2022-10-22T08:51:53;0.70;;;0.65;;
65668;SDS011;52376;47.448;19.354;2022-10-22T08:54:43;1.00;;;0.65;;
65668;SDS011;52376;47.448;19.354;2022-10-22T08:57:17;3.50;;;1.23;;
65668;SDS011;52376;47.448;19.354;2022-10-22T08:59:49;0.43;;;0.17;;
65668;SDS011;52376;47.448;19.354;2022-10-22T09:07:48;1.80;;;0.88;;
65668;SDS011;52376;47.448;19.354;2022-10-22T09:10:20;2.58;;;2.37;;
65668;SDS011;52376;47.448;19.354;2022-10-22T09:12:51;0.62;;;0.60;;
65668;SDS011;52376;47.448;19.354;2022-10-22T09:15:19;1.00;;;0.60;;
65668;SDS011;52376;47.448;19.354;2022-10-22T09:20:27;1.98;;;0.98;;
65668;SDS011;52376;47.448;19.354;2022-10-22T09:25:40;3.00;;;1.05;;
65668;SDS011;52376;47.448;19.354;2022-10-22T09:28:08;0.43;;;0.37;;
65668;SDS011;52376;47.448;19.354;2022-10-22T09:30:36;2.60;;;1.33;;
65668;SDS011;52376;47.448;19.354;2022-10-22T09:38:14;7.72;;;0.82;;
65668;SDS011;52376;47.448;19.354;2022-10-22T09:40:43;1.67;;;0.85;;
65668;SDS011;52376;47.448;19.354;2022-10-22T09:43:13;0.93;;;0.90;;
65668;SDS011;52376;47.448;19.354;2022-10-22T09:45:41;0.70;;;0.70;;
65668;SDS011;52376;47.448;19.354;2022-10-22T09:50:54;0.52;;;0.50;;
65668;SDS011;52376;47.448;19.354;2022-10-22T09:53:26;0.43;;;0.35;;
65668;SDS011;52376;47.448;19.354;2022-10-22T09:55:57;0.62;;;0.57;;
65668;SDS011;52376;47.448;19.354;2022-10-22T09:58:26;0.83;;;0.50;;
65668;SDS011;52376;47.448;19.354;2022-10-22T10:00:56;0.45;;;0.40;;
65668;SDS011;52376;47.448;19.354;2022-10-22T10:03:26;1.33;;;0.75;;
65668;SDS011;52376;47.448;19.354;2022-10-22T10:05:58;0.68;;;0.68;;
65668;SDS011;52376;47.448;19.354;2022-10-22T10:08:32;1.95;;;0.65;;
65668;SDS011;52376;47.448;19.354;2022-10-22T10:11:02;1.45;;;0.90;;
65668;SDS011;52376;47.448;19.354;2022-10-22T10:13:45;2.17;;;1.17;;
65668;SDS011;52376;47.448;19.354;2022-10-22T10:16:42;0.73;;;0.50;;
65668;SDS011;52376;47.448;19.354;2022-10-22T10:19:37;3.00;;;1.95;;
65668;SDS011;52376;47.448;19.354;2022-10-22T10:27:55;0.73;;;0.50;;
65668;SDS011;52376;47.448;19.354;2022-10-22T10:30:24;2.42;;;1.10;;
65668;SDS011;52376;47.448;19.354;2022-10-22T10:35:45;1.05;;;0.77;;
65668;SDS011;52376;47.448;19.354;2022-10-22T10:38:34;0.60;;;0.57;;
65668;SDS011;52376;47.448;19.354;2022-10-22T10:49:24;1.05;;;0.75;;
65668;SDS011;52376;47.448;19.354;2022-10-22T10:54:47;3.08;;;1.62;;
65668;SDS011;52376;47.448;19.354;2022-10-22T11:00:06;1.70;;;0.85;;
65668;SDS011;52376;47.448;19.354;2022-10-22T11:10:50;0.77;;;0.57;;
65668;SDS011;52376;47.448;19.354;2022-10-22T11:13:27;1.40;;;1.00;;
65668;SDS011;52376;47.448;19.354;2022-10-22T11:16:15;0.13;;;0.13;;
65668;SDS011;52376;47.448;19.354;2022-10-22T11:18:47;1.30;;;1.02;;
65668;SDS011;52376;47.448;19.354;2022-10-22T11:21:21;1.45;;;0.90;;
65668;SDS011;52376;47.448;19.354;2022-10-22T11:30:34;2.03;;;0.85;;
65668;SDS011;52376;47.448;19.354;2022-10-22T11:33:04;1.55;;;1.35;;
65668;SDS011;52376;47.448;19.354;2022-10-22T11:35:34;0.40;;;0.40;;
65668;SDS011;52376;47.448;19.354;2022-10-22T11:38:04;3.00;;;1.48;;
65668;SDS011;52376;47.448;19.354;2022-10-22T11:43:26;4.78;;;3.22;;
65668;SDS011;52376;47.448;19.354;2022-10-22T11:46:34;1.98;;;1.27;;
65668;SDS011;52376;47.448;19.354;2022-10-22T11:49:02;1.08;;;0.98;;
65668;SDS011;52376;47.448;19.354;2022-10-22T11:51:34;0.90;;;0.60;;
65668;SDS011;52376;47.448;19.354;2022-10-22T12:05:29;1.62;;;1.00;;
65668;SDS011;52376;47.448;19.354;2022-10-22T12:08:05;0.68;;;0.55;;
65668;SDS011;52376;47.448;19.354;2022-10-22T12:16:23;3.40;;;2.37;;
65668;SDS011;52376;47.448;19.354;2022-10-22T12:19:17;1.70;;;1.05;;
65668;SDS011;52376;47.448;19.354;2022-10-22T12:21:51;2.12;;;0.82;;
65668;SDS011;52376;47.448;19.354;2022-10-22T12:24:24;2.28;;;1.33;;
65668;SDS011;52376;47.448;19.354;2022-10-22T12:26:57;4.62;;;1.37;;
65668;SDS011;52376;47.448;19.354;2022-10-22T12:29:24;1.08;;;0.85;;
65668;SDS011;52376;47.448;19.354;2022-10-22T12:31:52;0.77;;;0.68;;
65668;SDS011;52376;47.448;19.354;2022-10-22T12:34:21;1.00;;;0.73;;
65668;SDS011;52376;47.448;19.354;2022-10-22T12:36:51;0.62;;;0.60;;
65668;SDS011;52376;47.448;19.354;2022-10-22T12:39:23;2.65;;;1.48;;
65668;SDS011;52376;47.448;19.354;2022-10-22T12:41:52;0.88;;;0.62;;
65668;SDS011;52376;47.448;19.354;2022-10-22T12:44:21;3.37;;;1.42;;
65668;SDS011;52376;47.448;19.354;2022-10-22T12:46:48;3.70;;;1.73;;
65668;SDS011;52376;47.448;19.354;2022-10-22T12:49:34;5.07;;;2.17;;
65668;SDS011;52376;47.448;19.354;2022-10-22T12:52:03;2.00;;;1.37;;
65668;SDS011;52376;47.448;19.354;2022-10-22T12:54:39;2.45;;;1.45;;
65668;SDS011;52376;47.448;19.354;2022-10-22T12:57:11;1.15;;;1.02;;
65668;SDS011;52376;47.448;19.354;2022-10-22T12:59:40;1.15;;;0.98;;
65668;SDS011;52376;47.448;19.354;2022-10-22T13:02:17;2.05;;;1.62;;
65668;SDS011;52376;47.448;19.354;2022-10-22T13:07:48;1.75;;;1.08;;
65668;SDS011;52376;47.448;19.354;2022-10-22T13:10:35;1.30;;;0.60;;
65668;SDS011;52376;47.448;19.354;2022-10-22T13:13:04;0.82;;;0.65;;
65668;SDS011;52376;47.448;19.354;2022-10-22T13:15:35;0.40;;;0.40;;
65668;SDS011;52376;47.448;19.354;2022-10-22T13:25:56;2.00;;;0.95;;
65668;SDS011;52376;47.448;19.354;2022-10-22T13:28:24;2.53;;;1.00;;
65668;SDS011;52376;47.448;19.354;2022-10-22T13:33:22;9.13;;;1.23;;
65668;SDS011;52376;47.448;19.354;2022-10-22T13:35:50;1.67;;;1.00;;
65668;SDS011;52376;47.448;19.354;2022-10-22T13:38:19;0.90;;;0.60;;
65668;SDS011;52376;47.448;19.354;2022-10-22T13:40:49;1.17;;;0.93;;
65668;SDS011;52376;47.448;19.354;2022-10-22T13:43:17;2.33;;;0.45;;
65668;SDS011;52376;47.448;19.354;2022-10-22T13:45:45;1.65;;;0.95;;
65668;SDS011;52376;47.448;19.354;2022-10-22T13:48:16;0.68;;;0.45;;
65668;SDS011;52376;47.448;19.354;2022-10-22T13:50:45;1.55;;;1.35;;
65668;SDS011;52376;47.448;19.354;2022-10-22T13:53:14;2.12;;;1.75;;
65668;SDS011;52376;47.448;19.354;2022-10-22T13:55:52;1.27;;;1.15;;
65668;SDS011;52376;47.448;19.354;2022-10-22T13:58:21;1.33;;;0.77;;
65668;SDS011;52376;47.448;19.354;2022-10-22T14:00:58;3.20;;;1.83;;
65668;SDS011;52376;47.448;19.354;2022-10-22T14:03:28;2.10;;;1.02;;
65668;SDS011;52376;47.448;19.354;2022-10-22T14:05:58;2.95;;;1.12;;
65668;SDS011;52376;47.448;19.354;2022-10-22T14:08:27;10.73;;;3.45;;
65668;SDS011;52376;47.448;19.354;2022-10-22T14:10:54;2.22;;;1.33;;
65668;SDS011;52376;47.448;19.354;2022-10-22T14:13:22;1.23;;;0.77;;
65668;SDS011;52376;47.448;19.354;2022-10-22T14:15:50;0.62;;;0.50;;
65668;SDS011;52376;47.448;19.354;2022-10-22T14:18:19;1.52;;;1.17;;
65668;SDS011;52376;47.448;19.354;2022-10-22T14:20:50;1.67;;;1.35;;
65668;SDS011;52376;47.448;19.354;2022-10-22T14:23:19;1.42;;;0.98;;
65668;SDS011;52376;47.448;19.354;2022-10-22T14:25:48;2.80;;;1.65;;
65668;SDS011;52376;47.448;19.354;2022-10-22T14:28:16;2.42;;;1.95;;
65668;SDS011;52376;47.448;19.354;2022-10-22T14:30:44;2.15;;;1.52;;
65668;SDS011;52376;47.448;19.354;2022-10-22T14:33:20;4.90;;;1.92;;
65668;SDS011;52376;47.448;19.354;2022-10-22T14:35:58;8.38;;;2.47;;
65668;SDS011;52376;47.448;19.354;2022-10-22T14:38:27;1.05;;;0.98;;
65668;SDS011;52376;47.448;19.354;2022-10-22T14:40:55;0.90;;;0.70;;
65668;SDS011;52376;47.448;19.354;2022-10-22T14:43:27;1.60;;;1.12;;
65668;SDS011;52376;47.448;19.354;2022-10-22T14:45:56;1.60;;;1.35;;
65668;SDS011;52376;47.448;19.354;2022-10-22T14:48:24;0.75;;;0.60;;
65668;SDS011;52376;47.448;19.354;2022-10-22T14:50:53;3.90;;;1.50;;
65668;SDS011;52376;47.448;19.354;2022-10-22T14:53:20;2.40;;;1.62;;
65668;SDS011;52376;47.448;19.354;2022-10-22T14:55:48;0.65;;;0.60;;
65668;SDS011;52376;47.448;19.354;2022-10-22T14:58:16;2.22;;;1.48;;
65668;SDS011;52376;47.448;19.354;2022-10-22T15:00:44;1.50;;;1.05;;
65668;SDS011;52376;47.448;19.354;2022-10-22T15:03:12;2.12;;;1.08;;
65668;SDS011;52376;47.448;19.354;2022-10-22T15:05:40;1.37;;;0.50;;
65668;SDS011;52376;47.448;19.354;2022-10-22T15:08:09;0.93;;;0.65;;
65668;SDS011;52376;47.448;19.354;2022-10-22T15:10:38;4.75;;;1.40;;
65668;SDS011;52376;47.448;19.354;2022-10-22T15:13:05;1.23;;;0.90;;
65668;SDS011;52376;47.448;19.354;2022-10-22T15:15:33;1.05;;;0.75;;
65668;SDS011;52376;47.448;19.354;2022-10-22T15:18:06;5.65;;;1.83;;
65668;SDS011;52376;47.448;19.354;2022-10-22T15:23:25;11.10;;;5.13;;
65668;SDS011;52376;47.448;19.354;2022-10-22T15:25:53;20.98;;;9.25;;
65668;SDS011;52376;47.448;19.354;2022-10-22T15:28:20;30.55;;;12.20;;
65668;SDS011;52376;47.448;19.354;2022-10-22T15:30:56;11.15;;;3.75;;
65668;SDS011;52376;47.448;19.354;2022-10-22T15:33:26;4.40;;;3.87;;
65668;SDS011;52376;47.448;19.354;2022-10-22T15:35:54;6.55;;;4.35;;
65668;SDS011;52376;47.448;19.354;2022-10-22T15:38:26;6.53;;;3.78;;
65668;SDS011;52376;47.448;19.354;2022-10-22T15:41:01;9.15;;;3.92;;
65668;SDS011;52376;47.448;19.354;2022-10-22T15:43:34;12.27;;;5.82;;
65668;SDS011;52376;47.448;19.354;2022-10-22T15:46:12;6.43;;;3.45;;
65668;SDS011;52376;47.448;19.354;2022-10-22T15:48:42;7.50;;;5.20;;
65668;SDS011;52376;47.448;19.354;2022-10-22T15:51:14;8.93;;;3.20;;
65668;SDS011;52376;47.448;19.354;2022-10-22T15:53:43;2.12;;;1.25;;
65668;SDS011;52376;47.448;19.354;2022-10-22T15:56:17;10.23;;;3.08;;
65668;SDS011;52376;47.448;19.354;2022-10-22T15:58:52;5.25;;;1.98;;
65668;SDS011;52376;47.448;19.354;2022-10-22T16:01:21;6.03;;;4.65;;
65668;SDS011;52376;47.448;19.354;2022-10-22T16:03:50;1.60;;;1.40;;
65668;SDS011;52376;47.448;19.354;2022-10-22T16:06:18;6.05;;;2.83;;
65668;SDS011;52376;47.448;19.354;2022-10-22T16:08:46;5.25;;;1.95;;
65668;SDS011;52376;47.448;19.354;2022-10-22T16:11:14;2.17;;;1.98;;
65668;SDS011;52376;47.448;19.354;2022-10-22T16:13:42;3.40;;;2.22;;
65668;SDS011;52376;47.448;19.354;2022-10-22T16:16:09;3.17;;;1.35;;
65668;SDS011;52376;47.448;19.354;2022-10-22T16:18:38;2.60;;;1.48;;
65668;SDS011;52376;47.448;19.354;2022-10-22T16:21:06;2.55;;;1.75;;
65668;SDS011;52376;47.448;19.354;2022-10-22T16:23:39;3.67;;;2.28;;
65668;SDS011;52376;47.448;19.354;2022-10-22T16:26:07;0.45;;;0.45;;
65668;SDS011;52376;47.448;19.354;2022-10-22T16:28:35;3.42;;;2.75;;
65668;SDS011;52376;47.448;19.354;2022-10-22T16:31:04;2.37;;;1.95;;
65668;SDS011;52376;47.448;19.354;2022-10-22T16:33:32;2.97;;;1.87;;
65668;SDS011;52376;47.448;19.354;2022-10-22T16:36:13;4.43;;;2.28;;
65668;SDS011;52376;47.448;19.354;2022-10-22T16:38:42;4.00;;;2.47;;
65668;SDS011;52376;47.448;19.354;2022-10-22T16:41:12;4.62;;;2.47;;
65668;SDS011;52376;47.448;19.354;2022-10-22T16:43:42;6.00;;;2.50;;
65668;SDS011;52376;47.448;19.354;2022-10-22T16:46:12;4.35;;;2.65;;
65668;SDS011;52376;47.448;19.354;2022-10-22T16:48:44;5.75;;;2.45;;
65668;SDS011;52376;47.448;19.354;2022-10-22T16:51:16;5.32;;;2.30;;
65668;SDS011;52376;47.448;19.354;2022-10-22T16:53:46;6.75;;;3.62;;
65668;SDS011;52376;47.448;19.354;2022-10-22T16:56:14;6.93;;;5.25;;
65668;SDS011;52376;47.448;19.354;2022-10-22T16:58:44;7.30;;;4.30;;
65668;SDS011;52376;47.448;19.354;2022-10-22T17:01:13;3.28;;;2.60;;